Terminal Aerodrome Forecast
Issued by NWS Portland, ME

Home | Current Version | Previous Version | Text Only | Print | Product List | Glossary On
Versions: 1 2 3 4 5 6 7 8 9 10 11 12 13 14 15 16 17 18 19
000
FTUS41 KGYX 170525
TAFCON
TAF
KCON 170525Z 1706/1806 00000KT 1/4SM FG VV002
     FM171400 VRB03KT P6SM FEW050
     FM171900 14005KT P6SM SCT060 SCT100
     FM180000 VRB03KT P6SM SCT100 BKN250=

USA.gov is the U.S. government's official web portal to all federal, state and local government web resources and services.